Terminal Aerodrome Forecast
Issued by NWS

Home | Current Version | Previous Version | Graphics & Text | Print | Product List | Glossary On
Versions: 1 2 3 4 5 6 7 8 9 10 11 12 13 14
000
FTUS43 KBIS 010500
TAFJMS
TAF
KJMS 010535Z 0106/0206 VRB03KT P6SM SKC
     FM011800 09006KT P6SM SCT060 SCT080
     FM020200 12006KT P6SM SCT070 SCT100=

USA.gov is the U.S. government's official web portal to all federal, state and local government web resources and services.